createdAt,value
2022-08-11T00:02:28.920Z,43.41
2022-08-11T00:04:58.771Z,43.20
2022-08-11T00:07:28.253Z,43.22
2022-08-11T00:09:56.999Z,43.05
2022-08-11T00:12:25.353Z,43.47
2022-08-11T00:14:59.798Z,43.56
2022-08-11T00:17:32.080Z,43.97
2022-08-11T00:20:15.413Z,44.00
2022-08-11T00:22:47.626Z,44.07
2022-08-11T00:25:19.117Z,44.08
2022-08-11T00:27:48.658Z,44.30
2022-08-11T00:30:18.516Z,44.13
2022-08-11T00:32:56.410Z,44.83
2022-08-11T00:35:56.047Z,44.86
2022-08-11T00:38:30.558Z,45.03
2022-08-11T00:41:11.225Z,45.10
2022-08-11T00:43:51.811Z,46.15
2022-08-11T00:46:38.986Z,46.95
2022-08-11T00:49:17.311Z,46.47
2022-08-11T00:52:08.622Z,47.01
2022-08-11T00:55:10.485Z,47.02
2022-08-11T00:58:10.353Z,47.04
2022-08-11T01:01:06.647Z,46.76
2022-08-11T01:04:00.423Z,47.02
2022-08-11T01:06:53.807Z,47.86
2022-08-11T01:09:50.641Z,47.82
2022-08-11T01:12:45.096Z,47.63
2022-08-11T01:16:08.011Z,48.07
2022-08-11T01:19:17.048Z,47.83
2022-08-11T01:22:21.447Z,48.10
2022-08-11T01:25:07.673Z,48.16
2022-08-11T01:28:03.978Z,48.80
2022-08-11T01:30:57.687Z,48.94
2022-08-11T01:34:09.085Z,49.37
2022-08-11T01:37:00.038Z,49.15
2022-08-11T01:40:06.849Z,49.07
2022-08-11T01:43:24.367Z,49.83
2022-08-11T01:45:56.726Z,48.55
2022-08-11T01:48:38.030Z,49.48
2022-08-11T01:51:34.290Z,49.67
2022-08-11T01:54:06.846Z,49.02
2022-08-11T01:56:44.080Z,49.32
2022-08-11T01:59:18.423Z,49.24
2022-08-11T02:02:07.032Z,49.90
2022-08-11T02:04:39.667Z,48.90
2022-08-11T02:07:18.479Z,49.48
2022-08-11T02:09:56.986Z,49.63
2022-08-11T02:12:43.810Z,50.00
2022-08-11T02:15:28.251Z,49.82
2022-08-11T02:18:05.134Z,50.05
2022-08-11T02:21:00.714Z,50.27
2022-08-11T02:24:05.668Z,50.35
2022-08-11T02:26:41.299Z,51.00
2022-08-11T02:29:18.043Z,50.84
2022-08-11T02:32:29.989Z,51.14
2022-08-11T02:35:05.584Z,50.69
2022-08-11T02:37:45.358Z,50.77
2022-08-11T02:40:24.222Z,51.26
2022-08-11T02:43:05.623Z,51.58
2022-08-11T02:45:41.829Z,50.66
2022-08-11T02:48:35.793Z,51.43
2022-08-11T02:51:22.118Z,51.12
2022-08-11T02:54:00.875Z,51.02
2022-08-11T02:56:45.758Z,51.41
2022-08-11T02:59:48.286Z,51.30
2022-08-11T03:02:27.843Z,51.62
2022-08-11T03:05:09.160Z,51.78
2022-08-11T03:07:49.768Z,51.71
2022-08-11T03:10:23.377Z,51.79
2022-08-11T03:13:15.920Z,51.73
2022-08-11T03:16:08.148Z,51.61
2022-08-11T03:18:51.432Z,52.47
2022-08-11T03:21:25.607Z,51.75
2022-08-11T03:24:20.469Z,51.90
2022-08-11T03:27:03.748Z,52.13
2022-08-11T03:29:36.472Z,52.49
2022-08-11T03:32:11.538Z,52.89
2022-08-11T03:34:39.845Z,52.99
2022-08-11T03:37:46.744Z,53.92
2022-08-11T03:40:52.064Z,55.31
2022-08-11T03:43:35.830Z,54.15
2022-08-11T03:46:17.906Z,54.01
2022-08-11T03:48:58.469Z,54.83
2022-08-11T03:51:44.841Z,54.23
2022-08-11T03:54:32.320Z,54.67
2022-08-11T03:57:36.581Z,55.34
2022-08-11T04:00:30.775Z,55.25
2022-08-11T04:03:56.507Z,55.67
2022-08-11T04:07:02.994Z,55.24
2022-08-11T04:09:57.124Z,55.44
2022-08-11T04:13:00.756Z,55.32
2022-08-11T04:16:10.791Z,55.35
2022-08-11T04:19:31.226Z,54.99
2022-08-11T04:22:20.053Z,54.83
2022-08-11T04:25:30.068Z,55.39
2022-08-11T04:28:28.443Z,55.00
2022-08-11T04:31:10.246Z,55.02
2022-08-11T04:34:30.179Z,55.69
2022-08-11T04:37:35.355Z,55.17
2022-08-11T04:40:56.264Z,56.22
2022-08-11T04:44:07.611Z,56.27
2022-08-11T04:46:58.322Z,55.77
2022-08-11T04:50:10.919Z,55.67
2022-08-11T04:53:28.787Z,56.33
2022-08-11T04:56:27.932Z,56.17
2022-08-11T04:59:39.047Z,57.30
2022-08-11T05:02:37.836Z,56.96
2022-08-11T05:05:32.963Z,56.54
2022-08-11T05:08:50.289Z,57.57
2022-08-11T05:11:46.031Z,57.12
2022-08-11T05:14:52.436Z,57.31
2022-08-11T05:17:49.497Z,56.97
2022-08-11T05:20:35.102Z,56.46
2022-08-11T05:23:25.716Z,57.02
2022-08-11T05:26:46.807Z,56.93
2022-08-11T05:29:42.728Z,57.47
2022-08-11T05:32:32.366Z,57.40
2022-08-11T05:35:03.322Z,57.38
2022-08-11T05:37:39.646Z,57.58
2022-08-11T05:40:28.590Z,57.32
2022-08-11T05:43:16.964Z,57.87
2022-08-11T05:46:14.504Z,58.12
2022-08-11T05:49:01.349Z,57.78
2022-08-11T05:51:55.131Z,58.35
2022-08-11T05:54:43.070Z,57.71
2022-08-11T05:57:49.575Z,58.48
2022-08-11T06:00:11.810Z,57.94
2022-08-11T06:02:45.454Z,58.95
2022-08-11T06:05:14.376Z,58.58
2022-08-11T06:07:47.212Z,58.48
2022-08-11T06:10:28.112Z,59.10
2022-08-11T06:12:57.309Z,58.31
2022-08-11T06:15:27.214Z,57.95
2022-08-11T06:17:58.754Z,57.93
2022-08-11T06:20:27.468Z,57.61
2022-08-11T06:23:03.918Z,57.64
2022-08-11T06:25:33.692Z,57.14
2022-08-11T06:28:02.408Z,57.37
2022-08-11T06:30:40.926Z,56.87
2022-08-11T06:33:17.108Z,56.59
2022-08-11T06:35:58.491Z,56.29
2022-08-11T06:38:42.896Z,56.98
2022-08-11T06:41:33.166Z,55.89
2022-08-11T06:44:29.270Z,54.87
2022-08-11T06:47:05.279Z,53.45
2022-08-11T06:50:08.406Z,53.17
2022-08-11T06:52:37.756Z,52.00
2022-08-11T06:55:57.116Z,52.09
2022-08-11T06:58:16.118Z,50.76
2022-08-11T07:00:45.532Z,50.88
2022-08-11T07:03:17.855Z,50.37
2022-08-11T07:05:53.052Z,49.31
2022-08-11T07:09:02.435Z,49.04
2022-08-11T07:12:21.114Z,48.86
2022-08-11T07:15:22.194Z,47.77
2022-08-11T07:18:12.906Z,47.50
2022-08-11T07:21:02.098Z,46.76
2022-08-11T07:23:53.279Z,44.25
2022-08-11T07:26:42.798Z,44.12
2022-08-11T07:29:14.237Z,43.18
2022-08-11T07:31:50.127Z,42.57
2022-08-11T07:34:21.571Z,42.27
2022-08-11T07:36:54.929Z,43.49
2022-08-11T07:39:27.602Z,42.70
2022-08-11T07:41:58.830Z,42.12
2022-08-11T07:44:34.643Z,42.32
2022-08-11T07:47:22.535Z,42.47
2022-08-11T07:50:11.088Z,41.52
2022-08-11T07:52:40.648Z,40.44
2022-08-11T07:55:16.881Z,37.08
2022-08-11T07:58:15.887Z,38.68
2022-08-11T08:01:10.575Z,38.61
2022-08-11T08:04:07.000Z,38.35
2022-08-11T08:06:53.146Z,38.96
2022-08-11T08:09:40.724Z,37.58
2022-08-11T08:12:28.694Z,36.09
2022-08-11T08:15:15.336Z,35.81
2022-08-11T08:18:09.915Z,36.41
2022-08-11T08:20:45.441Z,36.83
2022-08-11T08:23:14.153Z,35.36
2022-08-11T08:25:44.580Z,34.99
2022-08-11T08:28:17.520Z,34.71
2022-08-11T08:30:49.869Z,34.81
2022-08-11T08:33:23.007Z,33.86
2022-08-11T08:36:11.817Z,32.43
2022-08-11T08:38:41.967Z,32.87
2022-08-11T08:41:13.997Z,33.65
2022-08-11T08:43:49.903Z,32.49
2022-08-11T08:46:21.783Z,32.10
2022-08-11T08:48:53.145Z,31.82
2022-08-11T08:52:01.381Z,31.59
2022-08-11T08:54:30.770Z,31.93
2022-08-11T08:56:59.182Z,31.69
2022-08-11T08:59:44.927Z,30.80
2022-08-11T09:02:17.554Z,30.33
2022-08-11T09:04:47.806Z,30.17
2022-08-11T09:07:18.699Z,30.40
2022-08-11T09:09:50.447Z,30.04
2022-08-11T09:12:35.679Z,29.70
2022-08-11T09:15:11.565Z,29.97
2022-08-11T09:17:42.450Z,28.94
2022-08-11T09:20:14.203Z,29.62
2022-08-11T09:26:10.000Z,29.15
2022-08-11T09:28:38.719Z,27.88
2022-08-11T09:31:08.678Z,28.15
2022-08-11T09:33:37.458Z,28.20
2022-08-11T09:36:22.318Z,28.21
2022-08-11T09:39:09.321Z,28.61
2022-08-11T09:42:01.730Z,27.88
2022-08-11T09:44:43.952Z,28.21
2022-08-11T09:47:15.496Z,27.35
2022-08-11T09:49:45.663Z,26.62
2022-08-11T09:52:15.123Z,27.30
2022-08-11T09:54:48.226Z,27.11
2022-08-11T09:57:37.650Z,26.04
2022-08-11T10:00:12.316Z,26.66
2022-08-11T10:02:45.272Z,26.72
2022-08-11T10:05:35.967Z,26.29
2022-08-11T10:08:05.745Z,26.58
2022-08-11T10:10:37.661Z,25.94
2022-08-11T10:14:03.723Z,26.06
2022-08-11T10:16:03.628Z,24.57
2022-08-11T10:18:52.528Z,24.75
2022-08-11T10:21:28.481Z,24.22
2022-08-11T10:24:17.223Z,23.72
2022-08-11T10:26:58.863Z,23.79
2022-08-11T10:30:04.237Z,23.99
2022-08-11T10:32:58.454Z,23.32
2022-08-11T10:35:30.669Z,23.95
2022-08-11T10:38:08.785Z,22.56
2022-08-11T10:40:40.784Z,23.29
2022-08-11T10:43:13.713Z,23.20
2022-08-11T10:46:03.082Z,22.98
2022-08-11T10:48:33.611Z,23.09
2022-08-11T10:51:14.250Z,22.99
2022-08-11T10:54:03.664Z,23.55
2022-08-11T10:56:51.855Z,23.05
2022-08-11T10:59:20.156Z,23.25
2022-08-11T11:01:48.339Z,22.32
2022-08-11T11:04:18.615Z,22.41
2022-08-11T11:07:04.402Z,21.93
2022-08-11T11:09:34.316Z,22.30
2022-08-11T11:12:25.690Z,22.18
2022-08-11T11:15:17.681Z,22.52
2022-08-11T11:18:01.553Z,22.12
2022-08-11T11:20:37.778Z,21.97
2022-08-11T11:23:17.141Z,20.35
2022-08-11T11:26:11.091Z,22.24
2022-08-11T11:29:03.530Z,21.31
2022-08-11T11:31:44.334Z,21.93
2022-08-11T11:34:21.994Z,21.97
2022-08-11T11:36:51.623Z,21.39
2022-08-11T11:39:24.499Z,21.96
2022-08-11T11:41:54.941Z,22.75
2022-08-11T11:44:24.640Z,21.92
2022-08-11T11:46:54.148Z,20.02
2022-08-11T11:51:53.849Z,20.83
2022-08-11T11:54:27.124Z,20.51
2022-08-11T11:56:57.572Z,20.19
2022-08-11T11:59:45.935Z,20.60
2022-08-11T12:02:17.000Z,20.95
2022-08-11T12:04:50.686Z,20.65
2022-08-11T12:07:36.700Z,20.96
2022-08-11T12:10:09.037Z,21.58
2022-08-11T12:12:55.311Z,21.06
2022-08-11T12:16:04.362Z,21.58
2022-08-11T12:18:12.408Z,20.91
2022-08-11T12:20:40.756Z,21.13
2022-08-11T12:23:26.133Z,20.59
2022-08-11T12:26:28.438Z,20.17
2022-08-11T12:28:58.242Z,21.24
2022-08-11T12:31:26.668Z,20.17
2022-08-11T12:33:56.030Z,20.60
2022-08-11T12:36:24.305Z,20.59
2022-08-11T12:38:54.600Z,20.34
2022-08-11T12:41:42.545Z,20.06
2022-08-11T12:44:42.006Z,20.46
2022-08-11T12:47:11.093Z,20.63
2022-08-11T12:50:02.830Z,20.50
2022-08-11T12:52:35.462Z,20.10
2022-08-11T12:55:13.514Z,20.27
2022-08-11T12:58:05.370Z,20.50
2022-08-11T13:00:51.498Z,20.98
2022-08-11T13:03:38.972Z,21.26
2022-08-11T13:06:08.629Z,20.93
2022-08-11T13:08:41.348Z,20.68
2022-08-11T13:11:54.586Z,20.92
2022-08-11T13:14:18.302Z,20.69
2022-08-11T13:17:05.499Z,20.49
2022-08-11T13:19:34.509Z,19.75
2022-08-11T13:22:07.536Z,20.77
2022-08-11T13:24:36.952Z,20.92
2022-08-11T13:27:05.495Z,20.30
2022-08-11T13:29:36.730Z,19.89
2022-08-11T13:32:05.228Z,20.37
2022-08-11T13:34:33.513Z,20.05
2022-08-11T13:37:04.255Z,20.14
2022-08-11T13:39:34.546Z,19.63
2022-08-11T13:42:04.305Z,19.98
2022-08-11T13:44:36.052Z,19.75
2022-08-11T13:47:05.775Z,19.25
2022-08-11T13:49:37.076Z,19.76
2022-08-11T13:52:12.910Z,20.21
2022-08-11T13:54:42.553Z,20.12
2022-08-11T13:58:08.059Z,19.60
2022-08-11T14:00:24.993Z,20.15
2022-08-11T14:02:58.043Z,19.66
2022-08-11T14:05:29.253Z,19.01
2022-08-11T14:08:02.412Z,19.57
2022-08-11T14:10:33.473Z,18.74
2022-08-11T14:13:21.620Z,19.74
2022-08-11T14:15:52.779Z,19.61
2022-08-11T14:18:23.721Z,19.85
2022-08-11T14:21:13.850Z,19.61
2022-08-11T14:23:43.759Z,18.94
2022-08-11T14:26:26.962Z,19.80
2022-08-11T14:29:02.465Z,19.68
2022-08-11T14:31:33.942Z,19.52
2022-08-11T14:34:05.434Z,19.72
2022-08-11T14:36:36.322Z,19.22
2022-08-11T14:39:08.141Z,19.55
2022-08-11T14:42:11.229Z,19.86
2022-08-11T14:45:01.740Z,20.43
2022-08-11T14:47:34.681Z,19.84
2022-08-11T14:50:10.777Z,19.54
2022-08-11T14:52:45.008Z,20.43
2022-08-11T14:55:31.976Z,19.38
2022-08-11T14:58:01.821Z,19.24
2022-08-11T15:00:30.230Z,19.77
2022-08-11T15:03:12.107Z,19.77
2022-08-11T15:05:57.127Z,20.05
2022-08-11T15:08:42.316Z,19.92
2022-08-11T15:11:32.414Z,19.74
2022-08-11T15:14:02.234Z,20.32
2022-08-11T15:16:48.519Z,19.37
2022-08-11T15:19:21.142Z,19.03
2022-08-11T15:22:07.305Z,19.06
2022-08-11T15:24:36.633Z,19.50
2022-08-11T15:27:27.856Z,19.04
2022-08-11T15:30:29.881Z,19.59
2022-08-11T15:33:24.617Z,19.68
2022-08-11T15:36:13.358Z,19.71
2022-08-11T15:38:45.490Z,19.67
2022-08-11T15:41:43.150Z,19.81
2022-08-11T15:45:01.977Z,19.39
2022-08-11T15:47:37.609Z,19.26
2022-08-11T15:50:13.637Z,19.41
2022-08-11T15:52:50.787Z,19.27
2022-08-11T15:55:20.416Z,19.57
2022-08-11T15:58:09.265Z,19.56
2022-08-11T16:00:58.910Z,19.82
2022-08-11T16:04:07.474Z,19.71
2022-08-11T16:06:40.457Z,19.96
2022-08-11T16:09:19.271Z,19.30
2022-08-11T16:11:49.310Z,19.64
2022-08-11T16:14:36.175Z,19.65
2022-08-11T16:17:05.548Z,19.89
2022-08-11T16:19:36.500Z,19.69
2022-08-11T16:22:09.193Z,20.14
2022-08-11T16:27:03.824Z,20.50
2022-08-11T16:27:35.104Z,20.06
2022-08-11T16:30:05.183Z,19.79
2022-08-11T16:32:34.463Z,20.45
2022-08-11T16:35:24.172Z,19.63
2022-08-11T16:38:12.105Z,19.83
2022-08-11T16:40:42.762Z,19.58
2022-08-11T16:43:33.320Z,20.24
2022-08-11T16:46:33.252Z,20.48
2022-08-11T16:49:04.076Z,20.57
2022-08-11T16:51:32.956Z,20.54
2022-08-11T16:54:05.884Z,20.50
2022-08-11T16:56:39.918Z,20.10
2022-08-11T16:59:15.277Z,20.65
2022-08-11T17:01:53.138Z,20.36
2022-08-11T17:04:46.491Z,20.77
2022-08-11T17:07:42.024Z,21.07
2022-08-11T17:10:51.076Z,21.45
2022-08-11T17:13:27.454Z,21.24
2022-08-11T17:16:08.446Z,21.05
2022-08-11T17:18:43.236Z,20.91
2022-08-11T17:21:16.149Z,20.51
2022-08-11T17:23:50.298Z,21.37
2022-08-11T17:26:21.910Z,21.04
2022-08-11T17:28:57.438Z,21.65
2022-08-11T17:31:50.741Z,21.38
2022-08-11T17:34:36.706Z,21.44
2022-08-11T17:37:05.953Z,21.45
2022-08-11T17:39:35.808Z,22.13
2022-08-11T17:42:21.665Z,21.94
2022-08-11T17:45:10.224Z,21.98
2022-08-11T17:47:57.170Z,22.74
2022-08-11T17:50:26.374Z,22.33
2022-08-11T17:53:12.206Z,22.86
2022-08-11T17:55:58.333Z,23.05
2022-08-11T17:58:45.104Z,23.17
2022-08-11T18:01:15.680Z,23.14
2022-08-11T18:03:56.414Z,23.01
2022-08-11T18:06:33.527Z,23.90
2022-08-11T18:09:22.462Z,24.22
2022-08-11T18:12:11.515Z,23.76
2022-08-11T18:15:00.837Z,23.92
2022-08-11T18:17:48.052Z,24.17
2022-08-11T18:20:33.521Z,25.10
2022-08-11T18:23:46.064Z,25.52
2022-08-11T18:26:30.605Z,25.35
2022-08-11T18:29:18.014Z,24.88
2022-08-11T18:32:08.112Z,25.83
2022-08-11T18:34:59.304Z,26.33
2022-08-11T18:37:49.625Z,26.46
2022-08-11T18:40:37.828Z,26.60
2022-08-11T18:43:27.413Z,26.77
2022-08-11T18:46:18.880Z,26.89
2022-08-11T18:49:15.629Z,27.84
2022-08-11T18:52:05.672Z,27.52
2022-08-11T18:54:54.942Z,27.99
2022-08-11T18:57:49.629Z,27.79
2022-08-11T19:00:40.623Z,27.48
2022-08-11T19:03:27.863Z,27.92
2022-08-11T19:06:38.901Z,28.29
2022-08-11T19:09:26.881Z,28.92
2022-08-11T19:12:13.667Z,28.68
2022-08-11T19:15:01.048Z,29.32
2022-08-11T19:17:50.032Z,29.63
2022-08-11T19:20:38.633Z,29.61
2022-08-11T19:23:26.358Z,30.44
2022-08-11T19:26:14.715Z,30.58
2022-08-11T19:29:02.581Z,31.04
2022-08-11T19:31:48.310Z,31.81
2022-08-11T19:34:35.979Z,31.49
2022-08-11T19:37:25.027Z,31.24
2022-08-11T19:40:11.917Z,31.38
2022-08-11T19:42:59.909Z,31.82
2022-08-11T19:45:45.904Z,32.08
2022-08-11T19:48:39.994Z,32.93
2022-08-11T19:51:27.144Z,33.26
2022-08-11T19:54:13.610Z,33.27
2022-08-11T19:57:00.343Z,33.44
2022-08-11T19:59:48.208Z,32.86
2022-08-11T20:02:33.491Z,33.09
2022-08-11T20:05:19.120Z,33.47
2022-08-11T20:08:05.582Z,33.68
2022-08-11T20:10:52.889Z,34.47
2022-08-11T20:13:42.654Z,34.31
2022-08-11T20:16:32.552Z,34.92
2022-08-11T20:19:20.225Z,34.58
2022-08-11T20:22:12.527Z,34.99
2022-08-11T20:24:59.784Z,35.18
2022-08-11T20:27:46.216Z,35.02
2022-08-11T20:30:32.317Z,35.33
2022-08-11T20:33:19.403Z,35.66
2022-08-11T20:36:08.684Z,35.99
2022-08-11T20:38:55.704Z,35.51
2022-08-11T20:41:58.097Z,36.27
2022-08-11T20:44:46.738Z,36.17
2022-08-11T20:47:56.231Z,36.64
2022-08-11T20:50:45.624Z,36.68
2022-08-11T20:53:35.838Z,36.43
2022-08-11T20:56:22.722Z,37.00
2022-08-11T20:59:18.153Z,36.99
2022-08-11T21:02:10.102Z,37.07
2022-08-11T21:04:56.919Z,36.75
2022-08-11T21:07:55.385Z,37.59
2022-08-11T21:10:44.757Z,37.53
2022-08-11T21:13:34.241Z,37.58
2022-08-11T21:16:25.530Z,37.62
2022-08-11T21:19:15.802Z,37.69
2022-08-11T21:22:03.818Z,37.89
2022-08-11T21:24:51.612Z,37.99
2022-08-11T21:27:40.708Z,38.38
2022-08-11T21:30:27.573Z,38.38
2022-08-11T21:33:13.599Z,38.61
2022-08-11T21:36:00.959Z,38.61
2022-08-11T21:38:47.709Z,38.85
2022-08-11T21:41:35.436Z,39.05
2022-08-11T21:44:22.565Z,38.95
2022-08-11T21:47:09.304Z,39.03
2022-08-11T21:49:58.055Z,38.83
2022-08-11T21:52:44.288Z,39.03
2022-08-11T21:55:29.767Z,39.18
2022-08-11T21:58:18.590Z,39.38
2022-08-11T22:01:04.295Z,39.57
2022-08-11T22:03:50.631Z,39.71
2022-08-11T22:06:36.794Z,39.52
2022-08-11T22:09:22.425Z,39.50
2022-08-11T22:12:30.211Z,39.74
2022-08-11T22:15:15.429Z,39.97
2022-08-11T22:18:01.846Z,39.62
2022-08-11T22:20:48.462Z,39.95
2022-08-11T22:23:36.296Z,39.06
2022-08-11T22:26:24.386Z,39.04
2022-08-11T22:29:10.938Z,39.27
2022-08-11T22:31:59.104Z,39.15
2022-08-11T22:34:53.373Z,39.09
2022-08-11T22:37:40.334Z,39.31
2022-08-11T22:40:27.655Z,39.33
2022-08-11T22:43:13.206Z,39.24
2022-08-11T22:45:58.982Z,39.16
2022-08-11T22:48:47.729Z,40.08
2022-08-11T22:51:34.414Z,39.89
2022-08-11T22:54:21.373Z,39.90
2022-08-11T22:57:08.037Z,39.81
2022-08-11T22:59:55.580Z,39.67
2022-08-11T23:02:41.046Z,39.96
2022-08-11T23:05:28.882Z,39.95
2022-08-11T23:08:14.525Z,39.94
2022-08-11T23:11:01.408Z,40.25
2022-08-11T23:13:48.960Z,40.33
2022-08-11T23:16:35.401Z,40.59
2022-08-11T23:20:06.787Z,40.79
2022-08-11T23:22:49.352Z,40.42
2022-08-11T23:25:34.670Z,40.78
2022-08-11T23:28:20.862Z,40.88
2022-08-11T23:31:08.449Z,40.89
2022-08-11T23:33:58.711Z,41.10
2022-08-11T23:36:47.636Z,41.12
2022-08-11T23:39:35.376Z,41.30
2022-08-11T23:42:21.253Z,41.63
2022-08-11T23:45:09.438Z,41.38
2022-08-11T23:47:57.688Z,41.38
2022-08-11T23:50:43.085Z,41.43
2022-08-11T23:53:28.493Z,41.30
2022-08-11T23:56:15.443Z,41.40
2022-08-11T23:59:01.265Z,41.58
